createdAt,value
2022-08-05T00:00:00.511Z,2.77
2022-08-05T00:02:29.089Z,3.30
2022-08-05T00:04:58.140Z,2.57
2022-08-05T00:08:00.121Z,3.10
2022-08-05T00:10:16.568Z,2.97
2022-08-05T00:12:56.381Z,3.43
2022-08-05T00:15:55.799Z,3.40
2022-08-05T00:18:21.672Z,3.73
2022-08-05T00:20:51.132Z,3.60
2022-08-05T00:23:30.786Z,3.63
2022-08-05T00:26:09.580Z,3.50
2022-08-05T00:28:38.030Z,3.80
2022-08-05T00:31:08.179Z,3.33
2022-08-05T00:34:55.706Z,3.90
2022-08-05T00:37:12.636Z,3.83
2022-08-05T00:39:16.047Z,4.10
2022-08-05T00:41:55.126Z,3.80
2022-08-05T00:44:30.544Z,4.53
2022-08-05T00:47:02.121Z,4.80
2022-08-05T00:49:50.988Z,4.07
2022-08-05T00:52:28.694Z,4.20
2022-08-05T00:54:57.576Z,4.40
2022-08-05T00:57:31.744Z,4.37
2022-08-05T01:00:07.579Z,4.30
2022-08-05T01:02:39.762Z,4.20
2022-08-05T01:05:10.194Z,4.40
2022-08-05T01:08:29.824Z,4.00
2022-08-05T01:10:30.769Z,3.77
2022-08-05T01:13:13.037Z,4.23
2022-08-05T01:15:48.957Z,4.37
2022-08-05T01:18:17.891Z,4.43
2022-08-05T01:20:49.263Z,3.80
2022-08-05T01:23:23.237Z,3.80
2022-08-05T01:25:55.589Z,3.80
2022-08-05T01:28:29.316Z,3.47
2022-08-05T01:30:58.879Z,3.23
2022-08-05T01:33:36.203Z,3.70
2022-08-05T01:36:05.767Z,3.90
2022-08-05T01:38:41.616Z,3.43
2022-08-05T01:41:11.186Z,3.80
2022-08-05T01:43:44.208Z,3.07
2022-08-05T01:46:42.417Z,3.10
2022-08-05T01:49:23.315Z,3.53
2022-08-05T01:51:53.520Z,2.87
2022-08-05T01:54:25.489Z,3.30
2022-08-05T01:58:18.881Z,3.30
2022-08-05T01:59:47.173Z,3.10
2022-08-05T02:02:16.582Z,3.67
2022-08-05T02:04:46.139Z,3.33
2022-08-05T02:07:21.912Z,3.20
2022-08-05T02:09:51.249Z,3.57
2022-08-05T02:12:20.669Z,3.57
2022-08-05T02:14:51.405Z,3.60
2022-08-05T02:18:28.706Z,3.17
2022-08-05T02:20:12.932Z,3.43
2022-08-05T02:22:42.064Z,3.47
2022-08-05T02:25:12.845Z,3.13
2022-08-05T02:27:58.499Z,3.03
2022-08-05T02:30:32.389Z,3.20
2022-08-05T02:33:02.892Z,3.30
2022-08-05T02:35:33.237Z,3.03
2022-08-05T02:38:09.543Z,3.50
2022-08-05T02:40:38.750Z,3.20
2022-08-05T02:43:08.047Z,3.53
2022-08-05T02:45:52.471Z,2.90
2022-08-05T02:48:28.793Z,3.30
2022-08-05T02:50:57.984Z,3.17
2022-08-05T02:53:26.591Z,3.20
2022-08-05T02:56:01.849Z,2.73
2022-08-05T02:58:30.819Z,3.10
2022-08-05T03:01:01.840Z,3.23
2022-08-05T03:03:34.026Z,2.80
2022-08-05T03:06:55.892Z,2.63
2022-08-05T03:09:07.744Z,3.17
2022-08-05T03:11:54.329Z,3.20
2022-08-05T03:14:24.775Z,3.03
2022-08-05T03:16:56.158Z,2.80
2022-08-05T03:19:34.424Z,2.90
2022-08-05T03:22:16.090Z,3.50
2022-08-05T03:24:46.929Z,2.70
2022-08-05T03:27:15.826Z,2.87
2022-08-05T03:30:06.918Z,2.80
2022-08-05T03:32:34.085Z,2.70
2022-08-05T03:35:04.449Z,3.37
2022-08-05T03:37:41.744Z,3.60
2022-08-05T03:40:24.349Z,2.87
2022-08-05T03:43:01.364Z,2.90
2022-08-05T03:45:58.339Z,2.70
2022-08-05T03:48:29.361Z,2.60
2022-08-05T03:52:34.876Z,3.37
2022-08-05T03:55:52.466Z,2.90
2022-08-05T03:56:41.496Z,2.90
2022-08-05T03:59:11.452Z,2.67
2022-08-05T04:01:41.949Z,2.87
2022-08-05T04:04:15.367Z,2.93
2022-08-05T04:06:51.001Z,2.70
2022-08-05T04:09:20.260Z,2.60
2022-08-05T04:11:56.420Z,2.60
2022-08-05T04:14:29.422Z,2.40
2022-08-05T04:16:59.148Z,2.47
2022-08-05T04:19:28.878Z,2.60
2022-08-05T04:22:09.131Z,2.30
2022-08-05T04:24:43.794Z,2.60
2022-08-05T04:27:13.171Z,2.53
2022-08-05T04:29:41.809Z,2.53
2022-08-05T04:32:10.794Z,1.93
2022-08-05T04:34:42.859Z,2.53
2022-08-05T04:37:11.528Z,2.17
2022-08-05T04:39:41.266Z,2.37
2022-08-05T04:42:10.400Z,2.47
2022-08-05T04:44:39.796Z,2.10
2022-08-05T04:47:09.525Z,2.43
2022-08-05T04:50:02.521Z,2.40
2022-08-05T04:52:28.594Z,2.20
2022-08-05T04:54:57.922Z,2.07
2022-08-05T04:57:28.914Z,2.13
2022-08-05T04:59:58.946Z,2.30
2022-08-05T05:02:37.020Z,2.17
2022-08-05T05:05:16.657Z,2.07
2022-08-05T05:07:56.430Z,2.03
2022-08-05T05:10:29.910Z,2.20
2022-08-05T05:12:58.641Z,2.20
2022-08-05T05:15:54.335Z,2.20
2022-08-05T05:18:28.228Z,2.33
2022-08-05T05:20:58.631Z,2.10
2022-08-05T05:23:38.798Z,2.00
2022-08-05T05:26:15.588Z,1.93
2022-08-05T05:28:45.015Z,2.13
2022-08-05T05:31:13.734Z,2.20
2022-08-05T05:33:59.393Z,1.97
2022-08-05T05:36:31.864Z,1.80
2022-08-05T05:39:00.420Z,1.90
2022-08-05T05:41:40.326Z,1.60
2022-08-05T05:44:27.019Z,1.90
2022-08-05T05:46:58.503Z,1.90
2022-08-05T05:49:33.360Z,1.70
2022-08-05T05:52:05.883Z,1.60
2022-08-05T05:54:50.420Z,1.60
2022-08-05T05:57:20.859Z,2.00
2022-08-05T05:59:49.376Z,1.43
2022-08-05T06:02:36.692Z,1.50
2022-08-05T06:05:10.614Z,1.67
2022-08-05T06:07:57.941Z,1.40
2022-08-05T06:10:37.394Z,1.50
2022-08-05T06:13:17.423Z,1.60
2022-08-05T06:16:30.385Z,1.70
2022-08-05T06:18:36.598Z,1.47
2022-08-05T06:21:08.017Z,1.73
2022-08-05T06:23:49.880Z,1.40
2022-08-05T06:26:24.103Z,1.40
2022-08-05T06:28:53.681Z,1.20
2022-08-05T06:31:22.557Z,1.23
2022-08-05T06:34:06.146Z,1.10
2022-08-05T06:36:53.511Z,1.53
2022-08-05T06:39:27.203Z,1.20
2022-08-05T06:41:58.642Z,1.30
2022-08-05T06:44:27.609Z,1.30
2022-08-05T06:46:55.963Z,0.90
2022-08-05T06:50:01.148Z,1.23
2022-08-05T06:52:36.852Z,0.93
2022-08-05T06:55:03.088Z,1.10
2022-08-05T06:58:03.070Z,1.00
2022-08-05T07:00:24.812Z,1.00
2022-08-05T07:02:54.438Z,1.00
2022-08-05T07:05:37.045Z,1.03
2022-08-05T07:08:10.776Z,1.10
2022-08-05T07:10:52.488Z,1.00
2022-08-05T07:13:58.096Z,1.10
2022-08-05T07:18:01.165Z,1.20
2022-08-05T07:22:28.662Z,1.03
2022-08-05T07:24:59.161Z,1.10
2022-08-05T07:27:57.363Z,0.80
2022-08-05T07:30:22.960Z,0.90
2022-08-05T07:33:01.930Z,0.90
2022-08-05T07:36:03.457Z,0.70
2022-08-05T07:38:32.881Z,1.00
2022-08-05T07:42:07.246Z,0.97
2022-08-05T07:43:56.355Z,0.87
2022-08-05T07:46:26.285Z,0.90
2022-08-05T07:49:01.908Z,0.80
2022-08-05T07:51:48.574Z,1.20
2022-08-05T07:54:31.021Z,0.87
2022-08-05T07:57:22.640Z,1.20
2022-08-05T07:59:50.362Z,0.97
2022-08-05T08:02:19.480Z,1.23
2022-08-05T08:04:55.326Z,0.93
2022-08-05T08:07:24.099Z,0.90
2022-08-05T08:09:56.936Z,0.83
2022-08-05T08:12:35.134Z,1.00
2022-08-05T08:15:13.941Z,1.00
2022-08-05T08:17:52.360Z,0.83
2022-08-05T08:21:00.594Z,1.30
2022-08-05T08:24:00.477Z,0.80
2022-08-05T08:26:00.578Z,0.87
2022-08-05T08:28:37.122Z,0.80
2022-08-05T08:31:19.695Z,0.80
2022-08-05T08:33:53.170Z,0.70
2022-08-05T08:36:38.645Z,1.00
2022-08-05T08:39:15.512Z,0.90
2022-08-05T08:41:52.144Z,0.80
2022-08-05T08:45:20.551Z,0.80
2022-08-05T08:47:47.149Z,1.03
2022-08-05T08:50:29.877Z,0.77
2022-08-05T08:52:55.849Z,0.80
2022-08-05T08:56:01.791Z,0.90
2022-08-05T08:58:13.386Z,0.70
2022-08-05T09:00:42.467Z,0.67
2022-08-05T09:03:16.305Z,0.80
2022-08-05T09:06:07.787Z,0.60
2022-08-05T09:08:40.217Z,0.60
2022-08-05T09:11:12.039Z,0.90
2022-08-05T09:14:00.664Z,0.70
2022-08-05T09:16:29.360Z,1.10
2022-08-05T09:18:59.522Z,0.87
2022-08-05T09:22:23.267Z,0.97
2022-08-05T09:24:17.989Z,0.70
2022-08-05T09:26:48.608Z,0.77
2022-08-05T09:29:20.521Z,0.67
2022-08-05T09:32:45.567Z,0.80
2022-08-05T09:34:56.093Z,1.00
2022-08-05T09:38:16.854Z,0.60
2022-08-05T09:40:15.597Z,0.70
2022-08-05T09:42:44.250Z,0.67
2022-08-05T09:46:04.682Z,0.63
2022-08-05T09:48:20.286Z,0.67
2022-08-05T09:50:54.655Z,0.60
2022-08-05T09:53:53.127Z,0.70
2022-08-05T09:56:12.889Z,0.80
2022-08-05T09:58:42.411Z,0.70
2022-08-05T10:01:15.656Z,0.80
2022-08-05T10:03:56.768Z,0.77
2022-08-05T10:06:29.579Z,0.63
2022-08-05T10:09:27.726Z,0.67
2022-08-05T10:11:57.150Z,0.60
2022-08-05T10:14:27.541Z,1.17
2022-08-05T10:16:59.021Z,0.50
2022-08-05T10:20:02.845Z,0.80
2022-08-05T10:22:29.805Z,0.70
2022-08-05T10:24:58.491Z,0.70
2022-08-05T10:28:09.718Z,0.60
2022-08-05T10:31:20.275Z,1.00
2022-08-05T10:33:05.042Z,0.70
2022-08-05T10:35:43.855Z,0.63
2022-08-05T10:38:14.107Z,0.53
2022-08-05T10:40:46.264Z,0.60
2022-08-05T10:43:16.249Z,0.60
2022-08-05T10:45:45.620Z,0.60
2022-08-05T10:48:34.499Z,0.90
2022-08-05T10:51:21.799Z,0.70
2022-08-05T10:53:56.135Z,0.80
2022-08-05T10:56:30.447Z,0.70
2022-08-05T10:59:12.221Z,0.50
2022-08-05T11:01:55.336Z,0.70
2022-08-05T11:04:31.776Z,0.73
2022-08-05T11:07:06.586Z,0.70
2022-08-05T11:09:46.319Z,0.60
2022-08-05T11:12:33.637Z,0.70
2022-08-05T11:15:19.740Z,0.60
2022-08-05T11:18:00.053Z,1.10
2022-08-05T11:20:34.192Z,0.80
2022-08-05T11:23:08.818Z,0.60
2022-08-05T11:26:05.450Z,0.67
2022-08-05T11:28:48.042Z,0.60
2022-08-05T11:31:57.043Z,0.80
2022-08-05T11:34:37.985Z,0.63
2022-08-05T11:38:26.424Z,0.70
2022-08-05T11:40:02.660Z,0.50
2022-08-05T11:42:40.620Z,0.60
2022-08-05T11:45:23.176Z,0.40
2022-08-05T11:47:57.994Z,0.40
2022-08-05T11:50:28.364Z,0.57
2022-08-05T11:52:58.224Z,0.50
2022-08-05T11:55:32.301Z,0.40
2022-08-05T11:58:09.680Z,0.50
2022-08-05T12:00:41.615Z,0.53
2022-08-05T12:03:23.840Z,0.47
2022-08-05T12:06:00.219Z,0.57
2022-08-05T12:08:31.600Z,0.60
2022-08-05T12:11:05.825Z,0.40
2022-08-05T12:13:49.027Z,0.47
2022-08-05T12:16:19.564Z,0.60
2022-08-05T12:18:48.945Z,0.43
2022-08-05T12:21:23.770Z,0.63
2022-08-05T12:24:04.217Z,0.50
2022-08-05T12:26:33.662Z,0.70
2022-08-05T12:29:03.886Z,0.60
2022-08-05T12:31:45.954Z,0.50
2022-08-05T12:34:20.416Z,0.50
2022-08-05T12:36:52.310Z,0.50
2022-08-05T12:39:20.860Z,0.70
2022-08-05T12:41:49.191Z,0.50
2022-08-05T12:44:33.136Z,0.33
2022-08-05T12:47:02.751Z,0.60
2022-08-05T12:50:03.483Z,0.60
2022-08-05T12:52:35.280Z,0.50
2022-08-05T12:55:18.021Z,0.70
2022-08-05T12:58:38.569Z,0.53
2022-08-05T13:02:03.365Z,0.70
2022-08-05T13:03:32.178Z,0.50
2022-08-05T13:06:01.212Z,0.60
2022-08-05T13:08:30.203Z,0.50
2022-08-05T13:11:01.198Z,0.60
2022-08-05T13:14:06.007Z,0.50
2022-08-05T13:16:24.980Z,0.60
2022-08-05T13:18:55.239Z,0.70
2022-08-05T13:21:28.153Z,0.97
2022-08-05T13:24:08.664Z,0.90
2022-08-05T13:26:37.343Z,0.80
2022-08-05T13:29:05.865Z,0.73
2022-08-05T13:32:03.924Z,0.90
2022-08-05T13:34:26.167Z,0.90
2022-08-05T13:36:54.980Z,1.27
2022-08-05T13:40:14.583Z,0.80
2022-08-05T13:42:15.020Z,1.00
2022-08-05T13:44:46.374Z,1.03
2022-08-05T13:47:36.147Z,0.97
2022-08-05T13:50:09.610Z,1.00
2022-08-05T13:52:41.261Z,1.03
2022-08-05T13:55:10.034Z,0.90
2022-08-05T13:57:50.592Z,0.73
2022-08-05T14:00:27.135Z,0.67
2022-08-05T14:02:57.859Z,1.00
2022-08-05T14:05:48.343Z,1.07
2022-08-05T14:08:21.360Z,0.90
2022-08-05T14:10:59.685Z,0.90
2022-08-05T14:13:32.273Z,1.47
2022-08-05T14:16:08.864Z,0.90
2022-08-05T14:18:40.999Z,0.77
2022-08-05T14:22:07.203Z,0.90
2022-08-05T14:23:57.729Z,0.97
2022-08-05T14:26:35.514Z,0.93
2022-08-05T14:29:16.010Z,0.90
2022-08-05T14:31:54.285Z,0.93
2022-08-05T14:34:35.467Z,1.00
2022-08-05T14:37:04.239Z,1.10
2022-08-05T14:39:50.202Z,0.77
2022-08-05T14:42:22.383Z,1.00
2022-08-05T14:44:50.989Z,0.93
2022-08-05T14:47:58.417Z,0.70
2022-08-05T14:50:18.504Z,0.90
2022-08-05T14:52:53.414Z,0.87
2022-08-05T14:55:38.952Z,1.07
2022-08-05T14:58:11.575Z,0.80
2022-08-05T15:00:59.760Z,1.13
2022-08-05T15:03:34.075Z,0.80
2022-08-05T15:06:15.023Z,1.07
2022-08-05T15:09:01.562Z,1.30
2022-08-05T15:11:52.445Z,1.00
2022-08-05T15:14:34.821Z,1.00
2022-08-05T15:17:44.226Z,1.20
2022-08-05T15:19:59.112Z,1.17
2022-08-05T15:22:29.330Z,1.07
2022-08-05T15:24:59.195Z,1.20
2022-08-05T15:27:35.887Z,1.33
2022-08-05T15:30:04.698Z,1.40
2022-08-05T15:32:33.471Z,1.70
2022-08-05T15:35:04.089Z,1.60
2022-08-05T15:38:31.821Z,1.17
2022-08-05T15:41:03.269Z,1.27
2022-08-05T15:43:21.046Z,1.00
2022-08-05T15:46:00.233Z,1.47
2022-08-05T15:48:30.023Z,1.47
2022-08-05T15:51:01.039Z,1.47
2022-08-05T15:53:38.468Z,1.10
2022-08-05T15:56:19.875Z,1.23
2022-08-05T15:58:48.675Z,1.10
2022-08-05T16:01:18.983Z,0.90
2022-08-05T16:03:50.269Z,1.33
2022-08-05T16:06:20.066Z,1.10
2022-08-05T16:08:53.456Z,1.40
2022-08-05T16:11:43.111Z,1.07
2022-08-05T16:14:10.700Z,1.20
2022-08-05T16:16:46.534Z,1.20
2022-08-05T16:19:25.636Z,1.40
2022-08-05T16:22:04.068Z,1.43
2022-08-05T16:24:41.083Z,1.03
2022-08-05T16:27:19.285Z,1.10
2022-08-05T16:30:00.812Z,1.07
2022-08-05T16:32:32.825Z,1.67
2022-08-05T16:35:05.368Z,1.43
2022-08-05T16:38:02.446Z,1.63
2022-08-05T16:40:29.109Z,1.27
2022-08-05T16:42:58.384Z,1.23
2022-08-05T16:46:04.781Z,1.20
2022-08-05T16:48:25.312Z,1.00
2022-08-05T16:50:56.979Z,1.80
2022-08-05T16:54:06.230Z,1.73
2022-08-05T16:56:26.631Z,1.37
2022-08-05T16:59:14.667Z,1.10
2022-08-05T17:01:54.273Z,1.47
2022-08-05T17:04:27.165Z,1.23
2022-08-05T17:07:03.457Z,1.30
2022-08-05T17:09:57.638Z,1.10
2022-08-05T17:12:51.781Z,1.17
2022-08-05T17:15:21.038Z,1.00
2022-08-05T17:17:57.963Z,1.10
2022-08-05T17:20:31.931Z,1.10
2022-08-05T17:23:00.594Z,1.20
2022-08-05T17:25:39.459Z,1.10
2022-08-05T17:28:10.074Z,1.20
2022-08-05T17:30:50.392Z,1.20
2022-08-05T17:33:20.777Z,1.30
2022-08-05T17:36:08.755Z,1.93
2022-08-05T17:38:37.741Z,1.20
2022-08-05T17:41:22.715Z,1.37
2022-08-05T17:44:03.989Z,1.00
2022-08-05T17:46:32.330Z,1.13
2022-08-05T17:49:02.429Z,1.30
2022-08-05T17:51:40.281Z,1.20
2022-08-05T17:54:09.207Z,1.37
2022-08-05T18:07:32.994Z,1.53
2022-08-05T18:09:14.611Z,1.33
2022-08-05T18:14:39.695Z,1.07
2022-08-05T18:18:01.504Z,1.53
2022-08-05T18:20:00.238Z,1.33
2022-08-05T18:22:36.364Z,1.00
2022-08-05T18:25:20.679Z,1.10
2022-08-05T18:27:52.401Z,1.30
2022-08-05T18:30:26.942Z,1.50
2022-08-05T18:33:00.804Z,1.40
2022-08-05T18:36:00.752Z,1.47
2022-08-05T18:38:19.463Z,1.50
2022-08-05T18:41:57.177Z,1.20
2022-08-05T18:43:50.650Z,1.27
2022-08-05T18:46:21.875Z,1.30
2022-08-05T18:49:22.108Z,1.27
2022-08-05T18:52:38.179Z,1.33
2022-08-05T18:55:14.799Z,1.00
2022-08-05T18:57:52.811Z,1.30
2022-08-05T19:00:28.985Z,1.00
2022-08-05T19:03:13.819Z,1.30
2022-08-05T19:06:11.151Z,1.10
2022-08-05T19:08:45.440Z,1.17
2022-08-05T19:11:28.064Z,1.37
2022-08-05T19:14:44.768Z,1.07
2022-08-05T19:16:56.943Z,1.03
2022-08-05T19:19:28.539Z,1.37
2022-08-05T19:22:03.360Z,1.13
2022-08-05T19:24:34.402Z,1.30
2022-08-05T19:27:04.397Z,1.60
2022-08-05T19:29:36.491Z,1.00
2022-08-05T19:32:17.740Z,1.30
2022-08-05T19:34:55.207Z,1.23
2022-08-05T19:37:47.356Z,1.70
2022-08-05T19:40:18.265Z,1.20
2022-08-05T19:43:05.311Z,1.50
2022-08-05T19:45:54.657Z,1.70
2022-08-05T19:48:48.385Z,1.00
2022-08-05T19:52:09.411Z,1.50
2022-08-05T19:54:27.000Z,1.50
2022-08-05T19:57:02.484Z,1.50
2022-08-05T19:59:59.300Z,1.70
2022-08-05T20:02:31.484Z,1.20
2022-08-05T20:05:00.238Z,1.30
2022-08-05T20:07:45.873Z,1.50
2022-08-05T20:10:32.568Z,1.40
2022-08-05T20:16:00.048Z,1.33
2022-08-05T20:18:35.334Z,1.10
2022-08-05T20:21:10.265Z,1.10
2022-08-05T20:23:51.291Z,2.17
2022-08-05T20:26:25.375Z,1.90
2022-08-05T20:29:00.530Z,2.20
2022-08-05T20:31:42.260Z,1.80
2022-08-05T20:34:21.253Z,1.70
2022-08-05T20:36:52.026Z,1.20
2022-08-05T20:39:22.536Z,1.20
2022-08-05T20:42:02.600Z,1.37
2022-08-05T20:44:34.611Z,1.20
2022-08-05T20:47:07.481Z,1.10
2022-08-05T20:49:39.951Z,1.60
2022-08-05T20:52:12.207Z,1.33
2022-08-05T20:54:43.540Z,1.57
2022-08-05T20:57:43.393Z,1.20
2022-08-05T21:00:40.831Z,1.70
2022-08-05T21:03:06.182Z,1.40
2022-08-05T21:05:48.431Z,1.30
2022-08-05T21:08:26.663Z,1.60
2022-08-05T21:11:09.872Z,1.40
2022-08-05T21:13:55.566Z,1.60
2022-08-05T21:16:29.693Z,1.23
2022-08-05T21:19:00.148Z,1.13
2022-08-05T21:21:43.971Z,1.50
2022-08-05T21:24:19.539Z,1.77
2022-08-05T21:26:58.017Z,1.13
2022-08-05T21:29:32.181Z,1.50
2022-08-05T21:32:01.217Z,1.20
2022-08-05T21:34:33.007Z,1.40
2022-08-05T21:37:05.147Z,1.37
2022-08-05T21:39:40.541Z,1.00
2022-08-05T21:42:41.179Z,1.30
2022-08-05T21:47:56.018Z,1.20
2022-08-05T21:50:24.829Z,1.47
2022-08-05T21:52:53.914Z,1.70
2022-08-05T21:56:01.781Z,1.37
2022-08-05T21:58:16.012Z,1.70
2022-08-05T22:00:51.261Z,1.37
2022-08-05T22:03:52.560Z,1.40
2022-08-05T22:06:09.935Z,1.43
2022-08-05T22:08:42.780Z,1.60
2022-08-05T22:11:15.653Z,1.67
2022-08-05T22:14:05.711Z,1.50
2022-08-05T22:16:51.704Z,2.03
2022-08-05T22:20:01.700Z,1.50
2022-08-05T22:22:11.907Z,1.70
2022-08-05T22:24:58.534Z,1.40
2022-08-05T22:28:11.308Z,1.23
2022-08-05T22:30:37.577Z,1.50
2022-08-05T22:33:55.889Z,1.87
2022-08-05T22:36:19.275Z,1.30
2022-08-05T22:38:53.696Z,1.50
2022-08-05T22:42:05.632Z,1.50
2022-08-05T22:44:12.054Z,1.63
2022-08-05T22:46:41.084Z,1.60
2022-08-05T22:49:12.422Z,1.80
2022-08-05T22:52:04.448Z,1.60
2022-08-05T22:54:36.211Z,1.60
2022-08-05T22:57:04.754Z,1.60
2022-08-05T22:59:45.825Z,1.57
2022-08-05T23:02:17.728Z,1.83
2022-08-05T23:04:52.015Z,2.10
2022-08-05T23:07:22.547Z,1.83
2022-08-05T23:09:57.404Z,1.47
2022-08-05T23:12:32.777Z,1.57
2022-08-05T23:15:03.610Z,1.50
2022-08-05T23:17:34.851Z,1.70
2022-08-05T23:20:16.844Z,1.80
2022-08-05T23:22:48.488Z,1.60
2022-08-05T23:25:51.361Z,1.60
2022-08-05T23:28:07.231Z,2.00
2022-08-05T23:30:40.326Z,1.80
2022-08-05T23:33:22.101Z,2.10
2022-08-05T23:35:56.359Z,1.90
2022-08-05T23:38:27.039Z,1.83
2022-08-05T23:40:55.572Z,1.70
2022-08-05T23:44:03.195Z,1.83
2022-08-05T23:46:20.888Z,2.33
2022-08-05T23:49:00.371Z,2.10
2022-08-05T23:51:53.348Z,2.43
2022-08-05T23:54:25.705Z,1.83
2022-08-05T23:56:55.958Z,1.90
2022-08-05T23:59:37.741Z,2.30
